< < Back
Terminal Aerodrome Forecast


Current Version              Previous Versions:   1  2  3  4  5  6  7  8  9  

Terminal Aerodrome Forecast

885
FTUS42 KGSP 291132
TAFGSP
TAF
KGSP 291132Z 2912/3012 09004KT 6SM BR SCT004
     FM291400 00000KT P6SM BKN020
     FM291630 18005KT P6SM BKN035
     FM291900 16007KT P6SM VCSH BKN040
      TEMPO 2919/2923 VRB10G20KT 4SM TSRA BKN030CB
     FM300100 00000KT P6SM BKN050=

Latest METAR

629
SAUS70 KWBC 291100 RRB
MTRGSP
METAR KGSP 291053Z 02003KT 7SM CLR 23/22 A3000 RMK AO2 SLP145
T02280222


USA.gov is the U.S. government's official web portal to all federal, state and local government web resources and services.